sensor_id;sensor_type;location;lat;lon;timestamp;P1;durP1;ratioP1;P2;durP2;ratioP2
72621;SDS011;60665;53.506;9.582;2023-03-01T05:00:29;4.82;;;2.13;;
72621;SDS011;60665;53.506;9.582;2023-03-01T05:02:59;7.15;;;2.65;;
72621;SDS011;60665;53.506;9.582;2023-03-01T05:05:33;6.40;;;2.97;;
72621;SDS011;60665;53.506;9.582;2023-03-01T05:08:01;7.40;;;3.20;;
72621;SDS011;60665;53.506;9.582;2023-03-01T05:10:29;9.15;;;3.70;;
72621;SDS011;60665;53.506;9.582;2023-03-01T05:12:56;8.55;;;3.28;;
72621;SDS011;60665;53.506;9.582;2023-03-01T05:15:22;6.88;;;3.13;;
72621;SDS011;60665;53.506;9.582;2023-03-01T05:17:50;7.15;;;3.67;;
72621;SDS011;60665;53.506;9.582;2023-03-01T05:20:16;7.70;;;3.50;;
72621;SDS011;60665;53.506;9.582;2023-03-01T05:22:42;7.68;;;2.92;;
72621;SDS011;60665;53.506;9.582;2023-03-01T05:25:08;6.93;;;3.05;;
72621;SDS011;60665;53.506;9.582;2023-03-01T05:27:33;7.80;;;3.10;;
72621;SDS011;60665;53.506;9.582;2023-03-01T05:30:00;9.40;;;3.00;;
72621;SDS011;60665;53.506;9.582;2023-03-01T05:32:38;9.43;;;3.35;;
72621;SDS011;60665;53.506;9.582;2023-03-01T05:35:04;5.63;;;2.70;;
72621;SDS011;60665;53.506;9.582;2023-03-01T05:37:30;8.35;;;3.05;;
72621;SDS011;60665;53.506;9.582;2023-03-01T05:39:56;10.13;;;2.92;;
72621;SDS011;60665;53.506;9.582;2023-03-01T05:42:21;7.05;;;3.33;;
72621;SDS011;60665;53.506;9.582;2023-03-01T05:44:46;7.68;;;3.13;;
72621;SDS011;60665;53.506;9.582;2023-03-01T05:47:12;10.35;;;3.40;;
72621;SDS011;60665;53.506;9.582;2023-03-01T05:49:37;13.13;;;4.55;;
72621;SDS011;60665;53.506;9.582;2023-03-01T05:52:03;8.35;;;3.70;;
72621;SDS011;60665;53.506;9.582;2023-03-01T05:54:28;6.97;;;3.40;;
72621;SDS011;60665;53.506;9.582;2023-03-01T05:56:53;6.85;;;2.83;;
72621;SDS011;60665;53.506;9.582;2023-03-01T05:59:19;6.70;;;2.97;;
72621;SDS011;60665;53.506;9.582;2023-03-01T06:01:44;6.45;;;2.90;;
72621;SDS011;60665;53.506;9.582;2023-03-01T06:04:09;9.63;;;3.38;;
72621;SDS011;60665;53.506;9.582;2023-03-01T06:06:36;8.48;;;3.88;;
72621;SDS011;60665;53.506;9.582;2023-03-01T06:09:03;7.28;;;3.53;;
72621;SDS011;60665;53.506;9.582;2023-03-01T06:11:29;7.78;;;3.30;;
72621;SDS011;60665;53.506;9.582;2023-03-01T06:13:54;8.18;;;3.95;;
72621;SDS011;60665;53.506;9.582;2023-03-01T06:16:20;8.85;;;3.35;;
72621;SDS011;60665;53.506;9.582;2023-03-01T06:18:45;7.32;;;3.80;;
72621;SDS011;60665;53.506;9.582;2023-03-01T06:21:10;7.15;;;3.53;;
72621;SDS011;60665;53.506;9.582;2023-03-01T06:23:36;6.15;;;2.70;;
72621;SDS011;60665;53.506;9.582;2023-03-01T06:26:05;7.50;;;3.00;;
72621;SDS011;60665;53.506;9.582;2023-03-01T06:28:31;7.72;;;3.22;;
72621;SDS011;60665;53.506;9.582;2023-03-01T06:30:56;5.78;;;3.00;;
72621;SDS011;60665;53.506;9.582;2023-03-01T06:33:22;6.95;;;2.90;;
72621;SDS011;60665;53.506;9.582;2023-03-01T06:35:49;5.25;;;2.85;;
72621;SDS011;60665;53.506;9.582;2023-03-01T06:38:18;5.30;;;2.65;;
72621;SDS011;60665;53.506;9.582;2023-03-01T06:40:44;6.95;;;3.10;;
72621;SDS011;60665;53.506;9.582;2023-03-01T06:43:10;8.45;;;2.80;;
72621;SDS011;60665;53.506;9.582;2023-03-01T06:45:36;7.80;;;3.00;;
72621;SDS011;60665;53.506;9.582;2023-03-01T06:48:03;8.90;;;3.00;;
72621;SDS011;60665;53.506;9.582;2023-03-01T06:50:29;7.20;;;3.03;;
72621;SDS011;60665;53.506;9.582;2023-03-01T06:52:55;6.35;;;2.60;;
72621;SDS011;60665;53.506;9.582;2023-03-01T06:55:21;6.65;;;2.88;;
72621;SDS011;60665;53.506;9.582;2023-03-01T06:57:46;6.55;;;2.88;;
72621;SDS011;60665;53.506;9.582;2023-03-01T07:00:12;8.07;;;3.00;;
72621;SDS011;60665;53.506;9.582;2023-03-01T07:02:38;8.18;;;2.72;;
72621;SDS011;60665;53.506;9.582;2023-03-01T07:05:03;6.72;;;3.10;;
72621;SDS011;60665;53.506;9.582;2023-03-01T16:29:21;32.28;;;10.30;;
72621;SDS011;60665;53.506;9.582;2023-03-01T16:35:09;34.60;;;12.40;;
72621;SDS011;60665;53.506;9.582;2023-03-01T16:37:36;39.35;;;12.48;;
72621;SDS011;60665;53.506;9.582;2023-03-01T16:40:03;38.40;;;12.98;;
72621;SDS011;60665;53.506;9.582;2023-03-01T16:42:34;37.15;;;13.15;;
72621;SDS011;60665;53.506;9.582;2023-03-01T16:45:01;36.45;;;12.63;;
72621;SDS011;60665;53.506;9.582;2023-03-01T16:47:27;39.40;;;13.55;;
72621;SDS011;60665;53.506;9.582;2023-03-01T16:49:53;39.05;;;13.90;;
72621;SDS011;60665;53.506;9.582;2023-03-01T16:52:19;38.05;;;13.23;;
72621;SDS011;60665;53.506;9.582;2023-03-01T16:54:44;35.42;;;13.30;;
72621;SDS011;60665;53.506;9.582;2023-03-01T16:57:10;41.85;;;14.77;;
72621;SDS011;60665;53.506;9.582;2023-03-01T16:59:35;41.30;;;15.40;;
72621;SDS011;60665;53.506;9.582;2023-03-01T17:02:02;38.90;;;15.20;;
72621;SDS011;60665;53.506;9.582;2023-03-01T17:04:28;38.10;;;13.95;;
72621;SDS011;60665;53.506;9.582;2023-03-01T17:06:53;42.40;;;16.02;;
72621;SDS011;60665;53.506;9.582;2023-03-01T17:09:19;39.53;;;13.90;;
72621;SDS011;60665;53.506;9.582;2023-03-01T17:11:47;44.10;;;15.05;;
72621;SDS011;60665;53.506;9.582;2023-03-01T17:14:13;39.60;;;14.32;;
72621;SDS011;60665;53.506;9.582;2023-03-01T17:16:40;39.45;;;14.00;;
72621;SDS011;60665;53.506;9.582;2023-03-01T17:19:05;34.35;;;13.50;;
72621;SDS011;60665;53.506;9.582;2023-03-01T17:21:31;41.47;;;14.43;;
72621;SDS011;60665;53.506;9.582;2023-03-01T17:23:57;38.78;;;13.38;;
72621;SDS011;60665;53.506;9.582;2023-03-01T17:26:23;41.42;;;14.15;;
72621;SDS011;60665;53.506;9.582;2023-03-01T17:28:49;36.47;;;13.93;;
72621;SDS011;60665;53.506;9.582;2023-03-01T17:31:16;35.28;;;12.35;;
72621;SDS011;60665;53.506;9.582;2023-03-01T17:33:42;35.35;;;13.85;;
72621;SDS011;60665;53.506;9.582;2023-03-01T17:36:08;38.50;;;14.93;;
72621;SDS011;60665;53.506;9.582;2023-03-01T17:38:33;34.90;;;13.60;;
72621;SDS011;60665;53.506;9.582;2023-03-01T17:41:01;36.42;;;13.23;;
72621;SDS011;60665;53.506;9.582;2023-03-01T17:43:28;32.63;;;12.82;;
72621;SDS011;60665;53.506;9.582;2023-03-01T17:45:53;39.75;;;14.18;;
72621;SDS011;60665;53.506;9.582;2023-03-01T17:48:20;39.67;;;14.02;;
72621;SDS011;60665;53.506;9.582;2023-03-01T17:50:46;31.13;;;12.75;;
72621;SDS011;60665;53.506;9.582;2023-03-01T17:53:11;37.65;;;13.20;;
72621;SDS011;60665;53.506;9.582;2023-03-01T17:55:37;32.35;;;13.02;;
72621;SDS011;60665;53.506;9.582;2023-03-01T17:58:04;31.08;;;12.43;;
72621;SDS011;60665;53.506;9.582;2023-03-01T18:00:30;29.92;;;12.05;;
72621;SDS011;60665;53.506;9.582;2023-03-01T18:02:56;26.55;;;10.60;;
72621;SDS011;60665;53.506;9.582;2023-03-01T18:05:22;23.48;;;10.27;;
72621;SDS011;60665;53.506;9.582;2023-03-01T18:07:47;23.58;;;10.20;;
72621;SDS011;60665;53.506;9.582;2023-03-01T18:10:13;24.80;;;10.00;;
72621;SDS011;60665;53.506;9.582;2023-03-01T18:12:38;21.13;;;8.50;;
72621;SDS011;60665;53.506;9.582;2023-03-01T18:15:05;19.35;;;8.93;;
72621;SDS011;60665;53.506;9.582;2023-03-01T18:17:31;18.13;;;8.73;;
72621;SDS011;60665;53.506;9.582;2023-03-01T18:19:56;17.33;;;8.15;;
72621;SDS011;60665;53.506;9.582;2023-03-01T18:22:22;20.85;;;8.15;;
72621;SDS011;60665;53.506;9.582;2023-03-01T18:24:48;16.75;;;7.78;;
72621;SDS011;60665;53.506;9.582;2023-03-01T18:27:14;19.52;;;7.78;;
72621;SDS011;60665;53.506;9.582;2023-03-01T18:29:39;15.50;;;7.43;;
72621;SDS011;60665;53.506;9.582;2023-03-01T18:32:05;17.63;;;7.55;;
72621;SDS011;60665;53.506;9.582;2023-03-01T18:34:30;17.02;;;7.57;;
72621;SDS011;60665;53.506;9.582;2023-03-01T18:36:56;14.63;;;7.10;;
72621;SDS011;60665;53.506;9.582;2023-03-01T18:39:22;15.38;;;7.75;;
72621;SDS011;60665;53.506;9.582;2023-03-01T18:41:47;14.38;;;7.35;;
72621;SDS011;60665;53.506;9.582;2023-03-01T18:44:13;15.18;;;7.15;;
72621;SDS011;60665;53.506;9.582;2023-03-01T18:46:38;13.93;;;6.50;;
72621;SDS011;60665;53.506;9.582;2023-03-01T18:49:05;13.98;;;6.47;;
72621;SDS011;60665;53.506;9.582;2023-03-01T18:51:31;13.10;;;6.45;;
72621;SDS011;60665;53.506;9.582;2023-03-01T18:53:59;13.23;;;5.93;;
72621;SDS011;60665;53.506;9.582;2023-03-01T18:56:25;12.93;;;6.25;;
72621;SDS011;60665;53.506;9.582;2023-03-01T19:01:21;12.73;;;5.85;;
72621;SDS011;60665;53.506;9.582;2023-03-01T19:03:51;13.50;;;6.65;;
72621;SDS011;60665;53.506;9.582;2023-03-01T19:06:17;12.00;;;6.00;;
72621;SDS011;60665;53.506;9.582;2023-03-01T19:08:43;9.52;;;5.57;;
72621;SDS011;60665;53.506;9.582;2023-03-01T19:11:09;11.68;;;5.45;;
72621;SDS011;60665;53.506;9.582;2023-03-01T19:13:36;10.82;;;5.40;;
72621;SDS011;60665;53.506;9.582;2023-03-01T19:18:33;12.00;;;5.82;;
72621;SDS011;60665;53.506;9.582;2023-03-01T19:20:59;10.65;;;5.38;;
72621;SDS011;60665;53.506;9.582;2023-03-01T19:23:26;10.05;;;5.20;;
72621;SDS011;60665;53.506;9.582;2023-03-01T19:25:57;10.05;;;5.03;;
72621;SDS011;60665;53.506;9.582;2023-03-01T19:28:24;10.05;;;5.50;;
72621;SDS011;60665;53.506;9.582;2023-03-01T19:30:49;10.73;;;5.68;;
72621;SDS011;60665;53.506;9.582;2023-03-01T19:33:15;10.95;;;5.22;;
72621;SDS011;60665;53.506;9.582;2023-03-01T19:35:40;11.27;;;5.63;;
72621;SDS011;60665;53.506;9.582;2023-03-01T19:38:09;10.05;;;5.55;;
72621;SDS011;60665;53.506;9.582;2023-03-01T19:40:43;10.25;;;5.78;;
72621;SDS011;60665;53.506;9.582;2023-03-01T19:43:09;9.40;;;5.18;;
72621;SDS011;60665;53.506;9.582;2023-03-01T19:45:34;10.52;;;5.07;;
72621;SDS011;60665;53.506;9.582;2023-03-01T19:47:59;9.63;;;5.47;;
72621;SDS011;60665;53.506;9.582;2023-03-01T19:50:25;10.20;;;5.65;;
72621;SDS011;60665;53.506;9.582;2023-03-01T19:52:50;11.77;;;6.05;;
72621;SDS011;60665;53.506;9.582;2023-03-01T19:55:16;11.30;;;5.88;;
72621;SDS011;60665;53.506;9.582;2023-03-01T19:57:42;9.32;;;5.28;;
72621;SDS011;60665;53.506;9.582;2023-03-01T20:00:07;12.15;;;6.22;;
72621;SDS011;60665;53.506;9.582;2023-03-01T20:02:33;11.38;;;5.55;;
72621;SDS011;60665;53.506;9.582;2023-03-01T20:04:59;12.63;;;6.25;;
72621;SDS011;60665;53.506;9.582;2023-03-01T20:07:24;13.30;;;6.43;;
72621;SDS011;60665;53.506;9.582;2023-03-01T20:09:50;13.32;;;6.18;;
72621;SDS011;60665;53.506;9.582;2023-03-01T20:12:15;11.70;;;6.22;;
72621;SDS011;60665;53.506;9.582;2023-03-01T20:14:43;13.18;;;6.55;;
72621;SDS011;60665;53.506;9.582;2023-03-01T20:17:08;12.30;;;6.50;;
72621;SDS011;60665;53.506;9.582;2023-03-01T20:19:34;13.35;;;6.90;;
72621;SDS011;60665;53.506;9.582;2023-03-01T20:21:59;13.93;;;7.10;;
72621;SDS011;60665;53.506;9.582;2023-03-01T20:24:25;14.40;;;7.13;;
72621;SDS011;60665;53.506;9.582;2023-03-01T20:26:50;15.75;;;7.82;;
72621;SDS011;60665;53.506;9.582;2023-03-01T20:29:16;15.55;;;7.82;;
72621;SDS011;60665;53.506;9.582;2023-03-01T20:31:41;18.73;;;8.93;;
72621;SDS011;60665;53.506;9.582;2023-03-01T20:34:07;20.42;;;9.30;;
72621;SDS011;60665;53.506;9.582;2023-03-01T20:36:32;22.05;;;10.00;;
72621;SDS011;60665;53.506;9.582;2023-03-01T20:38:58;24.23;;;10.02;;
72621;SDS011;60665;53.506;9.582;2023-03-01T20:41:24;25.15;;;10.73;;
72621;SDS011;60665;53.506;9.582;2023-03-01T20:43:50;27.33;;;11.20;;
72621;SDS011;60665;53.506;9.582;2023-03-01T20:46:21;33.17;;;12.25;;
72621;SDS011;60665;53.506;9.582;2023-03-01T20:48:48;32.53;;;11.75;;
72621;SDS011;60665;53.506;9.582;2023-03-01T20:51:15;30.42;;;11.27;;
72621;SDS011;60665;53.506;9.582;2023-03-01T20:53:41;28.42;;;11.43;;
72621;SDS011;60665;53.506;9.582;2023-03-01T20:56:08;41.53;;;12.52;;
72621;SDS011;60665;53.506;9.582;2023-03-01T20:58:35;29.27;;;11.82;;
72621;SDS011;60665;53.506;9.582;2023-03-01T21:01:02;32.08;;;11.63;;
72621;SDS011;60665;53.506;9.582;2023-03-01T21:03:28;28.88;;;12.18;;
72621;SDS011;60665;53.506;9.582;2023-03-01T21:05:54;29.63;;;12.68;;
72621;SDS011;60665;53.506;9.582;2023-03-01T21:08:23;25.83;;;11.82;;
72621;SDS011;60665;53.506;9.582;2023-03-01T21:10:53;32.22;;;11.25;;
72621;SDS011;60665;53.506;9.582;2023-03-01T21:13:19;30.45;;;12.48;;
72621;SDS011;60665;53.506;9.582;2023-03-01T21:15:52;33.33;;;11.15;;
72621;SDS011;60665;53.506;9.582;2023-03-01T21:18:21;33.88;;;11.65;;
72621;SDS011;60665;53.506;9.582;2023-03-01T21:20:46;40.55;;;16.08;;
72621;SDS011;60665;53.506;9.582;2023-03-01T21:23:12;38.58;;;10.98;;
72621;SDS011;60665;53.506;9.582;2023-03-01T21:25:37;33.05;;;12.05;;
72621;SDS011;60665;53.506;9.582;2023-03-01T21:28:03;34.38;;;12.02;;
72621;SDS011;60665;53.506;9.582;2023-03-01T21:30:28;28.98;;;12.20;;
72621;SDS011;60665;53.506;9.582;2023-03-01T21:32:54;30.33;;;11.00;;
72621;SDS011;60665;53.506;9.582;2023-03-01T21:35:20;35.45;;;11.98;;
